FQLC

Lichinga Airport

Lichinga, Mozambique
TAF FQLC 092200Z 1000/1100 VRB03KT 9999 BKN015 FEW020CB PROB40 TEMPO 1000/1006 5000 TSRA BKN012 FEW018CB BECMG 1006/1008 02010KT BKN020 BECMG 1012/1014 32012KT BECMG 1018/1020 VRB03KT TX29/1013Z TN18/1003Z
Issued Valid From Valid To
Dec-9 @ 22:00 UTC
(3 hours ago)
Dec-10 @ 00:00 UTC
(44 minutes ago)
Dec-11 @ 00:00 UTC
(in 23 hours)
Dec-10 @ 00:00 to Dec-10 @ 06:00
TAF FQLC 092200Z 1000/1100 VRB03KT 9999 BKN015 FEW020CB
Wind Visibility Clouds
Variable at 3 knots 10,000+ meters
  • Broken at 1,500' AGL
  • Few at 2,000' AGL
Temporary  (Probability 40%) Dec-10 @ 00:00 to Dec-10 @ 06:00
PROB40 TEMPO 1000/1006 5000 TSRA BKN012 FEW018CB
Visibility Clouds Conditions
5,005 meters
  • Broken at 1,200' AGL
  • Few at 1,800' AGL
  • Thunderstorm
  • Rain
Becoming Dec-10 @ 06:00 to Dec-10 @ 12:00
BECMG 1006/1008 02010KT BKN020
Wind Visibility Clouds
20° at 10 knots 10,000+ meters
  • Broken at 2,000' AGL
Becoming Dec-10 @ 12:00 to Dec-10 @ 18:00
BECMG 1012/1014 32012KT
Wind Visibility Clouds
320° at 12 knots 10,000+ meters
  • Broken at 2,000' AGL
Becoming Dec-10 @ 18:00 to Dec-11 @ 00:00
BECMG 1018/1020 VRB03KT TX29/1013Z TN18/1003Z
Wind Visibility Clouds
Variable at 3 knots 10,000+ meters
  • Broken at 2,000' AGL
TAF FQLC 092200Z 1000/1100 VRB03KT 9999 BKN015 FEW020CB PROB40 TEMPO 1000/1006 5000 TSRA BKN012 FEW018CB BECMG 1006/1008 02010KT BKN020 BECMG 1012/1014 32012KT BECMG 1018/1020 VRB03KT TX29/1013Z TN18/1003Z
Issued Dec-9 @ 22:00 UTC
(3 hours ago)
Valid From Dec-10 @ 00:00 UTC
(44 minutes ago)
Valid To Dec-11 @ 00:00 UTC
(in 23 hours)
Dec-10 @ 00:00 - Dec-10 @ 06:00
Wind Visibility
Variable at 3 knots 10,000+ meters
Clouds
  • Broken at 1,500' AGL
  • Few at 2,000' AGL
Probability 40% Temporary Dec-10 @ 00:00 - Dec-10 @ 06:00
Clouds
  • Broken at 1,200' AGL
  • Few at 1,800' AGL
Conditions
  • Thunderstorm
  • Rain
Becoming Dec-10 @ 06:00 - Dec-10 @ 12:00
Wind Visibility
20° at 10 knots 10,000+ meters
Clouds
  • Broken at 2,000' AGL
Becoming Dec-10 @ 12:00 - Dec-10 @ 18:00
Wind Visibility
320° at 12 knots 10,000+ meters
Clouds
  • Broken at 2,000' AGL
Becoming Dec-10 @ 18:00 - Dec-11 @ 00:00
Wind Visibility
Variable at 3 knots 10,000+ meters
Clouds
  • Broken at 2,000' AGL